Nearby METAR Reports

 

KSJC - San Jose, California, USA
Distance from station: NE 9mi, 14km
Updated: Sat, 19-Jan-2019 1:53pm MST
Mostly cloudy
Mostly cloudy
 Wind from calm
Wind: Calm
Temperature: 68°F , 20°C
Dew Point: 50°F , 10°C
Humidity: 53%
Barometer: 30.30 inHg , 1026.1 hPa
Clouds: Mostly cloudy
Visibility: 10 miles , 16 km
Cloud details: Few Clouds 3500 ft
Partly cloudy 7000 ft
Mostly cloudy 16000 ft
2019/01/19 20:53 KSJC 192053Z 00000KT 10SM FEW035 SCT070 BKN160 20/10 A3030 RMK AO2 SLP258 T02000100 58027
KNUQ - Moffett Nas/Mtn, California, USA
Distance from station: N 9mi, 14km
Updated: Sat, 19-Jan-2019 1:56pm MST
Mostly cloudy
Mostly cloudy
 Wind from N
Wind: N 8 mph , 13 km/h
Temperature: 63°F , 17°C
Dew Point: 52°F , 11°C
Humidity: 68%
Barometer: 30.31 inHg , 1026.4 hPa
Clouds: Mostly cloudy
Visibility: 10 miles , 16 km
Cloud details: Mostly cloudy 6000 ft
2019/01/19 20:56 KNUQ 192056Z 35007KT 10SM BKN060 17/11 A3031 RMK AO2 SLP267 T01720106 58024
 
KPAO - Palo Alto, California, USA
Distance from station: NNW 14mi, 23km
Updated: Sat, 19-Jan-2019 12:47pm MST
NOT Current
Partly cloudy
Partly cloudy
 Wind from N
Wind: N 6 mph , 9 km/h
Temperature: 59°F , 15°C
Dew Point: 54°F , 12°C
Humidity: 82%
Barometer: 30.35 inHg , 1027.8 hPa
Clouds: Partly cloudy
Visibility: 10 miles , 16 km
Cloud details: Few Clouds 5000 ft
Partly cloudy 10000 ft
2019/01/19 19:47 KPAO 191947Z 36005KT 10SM FEW050 SCT100 15/12 A3035
KRHV - San Jose/Reid, California, USA
Distance from station: ENE 12mi, 19km
Updated: Sat, 19-Jan-2019 1:50pm MST
Partly cloudy
Partly cloudy
 Wind from varies
Wind: varies 6 mph , 9 km/h
Temperature: 72°F , 22°C
Dew Point: 52°F , 11°C
Humidity: 50%
Barometer: 30.28 inHg , 1025.4 hPa
Clouds: Partly cloudy
Visibility: 10 miles , 16 km
Cloud details: Few Clouds 3000 ft
Partly cloudy 8000 ft
2019/01/19 20:50 KRHV 192050Z VRB05KT 10SM FEW030 SCT080 22/11 A3028
 
KOAK - Oakland, California, USA
Distance from station: NNW 31mi, 50km
Updated: Sat, 19-Jan-2019 1:53pm MST
Mostly cloudy
Mostly cloudy
 Wind from W
Wind: W 5 mph , 7 km/h
Temperature: 63°F , 17°C
Dew Point: 48°F , 9°C
Humidity: 59%
Barometer: 30.32 inHg , 1026.8 hPa
Clouds: Mostly cloudy
Visibility: 10 miles , 16 km
Cloud details: Few Clouds 2800 ft
Few Clouds 7000 ft
Mostly cloudy 25000 ft
2019/01/19 20:53 KOAK 192053Z 27004KT 10SM FEW028 FEW070 BKN250 17/09 A3032 RMK AO2 SLP267 T01670094 58021
KSQL - San Carlos Airpo, California, USA
Distance from station: NW 21mi, 34km
Updated: Sat, 19-Jan-2019 12:47pm MST
NOT Current
Mostly cloudy
Mostly cloudy
 Wind from NE
Wind: NE 6 mph , 9 km/h
Temperature: 57°F , 14°C
Dew Point: 54°F , 12°C
Humidity: 88%
Barometer: 30.34 inHg , 1027.4 hPa
Clouds: Mostly cloudy
Visibility: 8 miles , 13 km
Cloud details: Partly cloudy 6000 ft
Mostly cloudy 20000 ft
2019/01/19 19:47 KSQL 191947Z 04005KT 8SM SCT060 BKN200 14/12 A3034
 
KSFO - San Francisco, California, USA
Distance from station: NW 30mi, 49km
Updated: Sat, 19-Jan-2019 1:56pm MST
Mostly cloudy
Mostly cloudy
 Wind from N
Wind: N 6 mph , 9 km/h
Temperature: 61°F , 16°C
Dew Point: 52°F , 11°C
Humidity: 72%
Barometer: 30.30 inHg , 1026.1 hPa
Clouds: Mostly cloudy
Visibility: 10 miles , 16 km
Cloud details: Few Clouds 3800 ft
Partly cloudy 16000 ft
Mostly cloudy 20000 ft
2019/01/19 20:56 KSFO 192056Z 01005KT 10SM FEW038 SCT160 BKN200 16/11 A3030 RMK AO2 SLP262 T01610106 58021 $
KE16 - San Martin, California, USA
Distance from station: ESE 27mi, 43km
Updated: Sat, 19-Jan-2019 1:50pm MST
Clear
Clear
 Wind from calm
Wind: Calm
Temperature: 64°F , 18°C
Dew Point: 50°F , 10°C
Humidity: 60%
Barometer: 30.31 inHg , 1026.4 hPa
Clouds: Clear
Visibility: 10 miles , 16 km
2019/01/19 20:50 KE16 192050Z AUTO 00000KT 10SM CLR 18/10 A3031 RMK AO2
 
KWVI - Watsonville, California, USA
Distance from station: SSE 27mi, 44km
Updated: Sat, 19-Jan-2019 1:53pm MST
Clear
Clear
 Wind from calm
Wind: Calm
Temperature: 70°F , 21°C
Dew Point: 52°F , 11°C
Humidity: 53%
Barometer: 30.29 inHg , 1025.7 hPa
Clouds: Clear
Visibility: 10 miles , 16 km
2019/01/19 20:53 KWVI 192053Z AUTO 00000KT 10SM CLR 21/11 A3029 RMK AO2 SLP257 T02060106 58029
KHAF - Half Moon Bay, California, USA
Distance from station: WNW 31mi, 50km
Updated: Sat, 19-Jan-2019 1:55pm MST
Haze, Overcast
Haze, Overcast
 Wind from NW
Wind: NW 5 mph , 7 km/h
Temperature: 63°F , 17°C
Dew Point: 48°F , 9°C
Humidity: 59%
Barometer: 30.32 inHg , 1026.8 hPa
Summary: Haze
Clouds: Overcast
Visibility: 6 miles , 10 km
Cloud details: Overcast 2800 ft
2019/01/19 20:55 KHAF 192055Z AUTO 32004KT 6SM HZ OVC028 17/09 A3032 RMK AO2
 
KHWD - Hayward, California, USA
Distance from station: N 28mi, 44km
Updated: Sat, 19-Jan-2019 1:54pm MST
Few Clouds
Few Clouds
 Wind from W
Wind: W 6 mph , 9 km/h
Temperature: 63°F , 17°C
Dew Point: 50°F , 10°C
Humidity: 64%
Barometer: 30.31 inHg , 1026.4 hPa
Clouds: Few Clouds
Visibility: 10 miles , 16 km
Cloud details: Few Clouds 3000 ft
2019/01/19 20:54 KHWD 192054Z 26005KT 10SM FEW030 17/10 A3031 RMK AO2 SLP273 T01720100 58022
KLVK - Livermore, California, USA
Distance from station: NNE 31mi, 51km
Updated: Sat, 19-Jan-2019 1:53pm MST
Clear
Clear
 Wind from calm
Wind: Calm
Temperature: 66°F , 19°C
Dew Point: 52°F , 11°C
Humidity: 60%
Barometer: 30.30 inHg , 1026.1 hPa
Clouds: Clear
Visibility: 10 miles , 16 km
2019/01/19 20:53 KLVK 192053Z 00000KT 10SM CLR 19/11 A3030 RMK AO2 SLP259 T01940111 58026